Airfield :
LOGIN :

Register | Disclaimer

   EN    FR    IT 

 










Legend :    VFR   Marginal VFR   IFR   Intensive IFR   Very Intensive IFR
Visi :
Ceiling :
>= 8 km
>= 3000ft
5 to 8 km
1000 to 3000 ft
1500m to 5 km
500 to 1000 ft
800 to 1500m
200 to 500 ft
< 800m
< 200 ft
Symbols :   Thunderstorms  Fog  Heavy snow  Heavy precipitations  Wind > 20 kt
SIGMETs :     Misc.  Thunderstorms  Icing  Turbulence  Mountain Waves  Volcanic Ashes







- Airport Elevation : 512 ft
- IATA code : URO
- Download approach charts


LFOP - Rouen Vallée de Seine

CURRENT METAR :
  • 221000Z AUTO 17006KT 1600 1400 R22/1900D BR OVC005 01/00 Q1005 TEMPO SHSNRA OVC003 BKN030TCU

EXPIRED METARs :
  • 220930Z AUTO 17005KT 1300 1200 R22/1900N BR OVC003 01/00 Q1006 TEMPO 1500 SHSNRA OVC003 BKN030TCU
  • 220900Z AUTO 18007KT 1900 BR OVC005 01/00 Q1006 TEMPO SHSNRA OVC003 BKN030TCU
  • 220830Z AUTO 19008KT 2900 BR OVC005 01/00 Q1006 TEMPO SHSNRA OVC003 BKN030TCU
  • 220800Z AUTO 19010KT 2800 -DZ BR BKN005 OVC010 01/00 Q1006 TEMPO 18015G25KT SHSNRA OVC003 BKN030TCU
  • 220730Z AUTO 20012KT 4000 -RA BR OVC004 00/00 Q1007 TEMPO 18015G25KT 1500 SHSNRA OVC003 BKN030TCU

TAF TAF LFOP
Valid from the 22 at 06:00 until the 23 at 06:00 UTC


220500Z 2206/2306 17012KT 6000 OVC007
TEMPO 2206/2209 18015G25KT 1500 SN OVC002
FM220900 22008KT 8000 BKN015
TEMPO 2209/2222 1500 SHSNRA OVC003 BKN030TCU
ATIS : +33 2 35 80 80 34
Met : +33 2 32 86 52 80
No reported NOTAMs for that airfield.



MET'MAP, your aeronautical weather chart ! - Copyright ORBIFLY December 2007 - Disclaimer

ORBIFLY MET'MAP TEAM :

Programming & Development : Alexandra Zaïnal
Concept & Development : Baudouin d'Aumeries
Co-Development & Prog : Marc-Olivier Méhu
Technical & hardware support : Manuel Goepfert

Contact : metmap@orbifly.com




SOURCES & CREDITS :

   NOAA